Time;durP1;ratioP1;P1;durP2;ratioP2;P2;SDS_P1;SDS_P2;PMS_P1;PMS_P2;Temp;Humidity;BMP_temperature;BMP_pressure;BME280_temperature;BME280_humidity;BME280_pressure;Samples;Min_cycle;Max_cycle;Signal;HPM_P1;HPM_P2
2024/01/17 00:00:19;;;;;;;22.10;12.02;;;;;;;;;;5114821;28;20062;-71
2024/01/17 00:03:23;;;;;;;34.00;12.95;;;;;;;;;;5114489;28;20047;-71
2024/01/17 00:06:28;;;;;;;26.90;13.05;;;;;;;;;;5114646;28;20043;-71
2024/01/17 00:09:32;;;;;;;32.25;15.13;;;;;;;;;;5114624;28;20058;-70
2024/01/17 00:12:36;;;;;;;30.45;14.27;;;;;;;;;;5114559;28;20051;-70
2024/01/17 00:15:41;;;;;;;35.38;14.43;;;;;;;;;;5114236;28;20051;-70
2024/01/17 00:18:44;;;;;;;26.90;14.25;;;;;;;;;;5114391;28;20055;-70
2024/01/17 00:21:50;;;;;;;26.42;15.75;;;;;;;;;;5114459;28;20046;-70
2024/01/17 00:24:55;;;;;;;31.40;14.73;;;;;;;;;;5114022;28;20512;-70
2024/01/17 00:27:59;;;;;;;28.13;13.85;;;;;;;;;;5114403;28;20038;-70
2024/01/17 00:31:04;;;;;;;28.75;12.45;;;;;;;;;;5114109;28;20039;-70
2024/01/17 00:34:08;;;;;;;23.52;12.35;;;;;;;;;;5114054;28;20047;-70
2024/01/17 00:37:13;;;;;;;25.77;12.95;;;;;;;;;;5113255;28;20042;-70
2024/01/17 00:40:17;;;;;;;25.40;12.57;;;;;;;;;;5113930;28;20510;-70
2024/01/17 00:43:21;;;;;;;28.27;13.50;;;;;;;;;;5113870;28;20048;-70
2024/01/17 00:46:26;;;;;;;34.50;16.75;;;;;;;;;;5113949;28;20047;-70
2024/01/17 00:49:30;;;;;;;33.97;16.42;;;;;;;;;;5113795;28;20051;-70
2024/01/17 00:52:34;;;;;;;29.38;14.75;;;;;;;;;;5113900;28;20034;-70
2024/01/17 00:55:38;;;;;;;33.15;15.85;;;;;;;;;;5112456;28;20505;-70
2024/01/17 00:58:43;;;;;;;34.10;16.35;;;;;;;;;;5114010;28;20043;-70
2024/01/17 01:01:47;;;;;;;37.75;17.75;;;;;;;;;;5113301;28;20046;-70
2024/01/17 01:04:52;;;;;;;33.67;16.52;;;;;;;;;;5113435;28;20106;-70
2024/01/17 01:07:56;;;;;;;32.85;15.60;;;;;;;;;;5114013;28;20387;-70
2024/01/17 01:11:00;;;;;;;30.05;14.15;;;;;;;;;;5113682;28;20039;-70
2024/01/17 01:14:05;;;;;;;30.88;13.90;;;;;;;;;;5113518;28;20046;-70
2024/01/17 01:17:09;;;;;;;26.13;14.13;;;;;;;;;;5113544;28;20054;-70
2024/01/17 01:20:14;;;;;;;25.65;13.07;;;;;;;;;;5113143;28;20054;-70
2024/01/17 01:23:18;;;;;;;29.60;13.10;;;;;;;;;;5113332;28;20043;-70
2024/01/17 01:26:22;;;;;;;28.77;13.98;;;;;;;;;;5112484;28;20045;-70
2024/01/17 01:29:27;;;;;;;31.50;15.32;;;;;;;;;;5113087;28;20046;-70
2024/01/17 01:32:31;;;;;;;28.45;14.57;;;;;;;;;;5112885;28;20042;-70
2024/01/17 01:35:35;;;;;;;26.48;13.30;;;;;;;;;;5112692;28;20050;-70
2024/01/17 01:38:39;;;;;;;28.90;13.52;;;;;;;;;;5112938;28;20039;-70
2024/01/17 01:41:44;;;;;;;27.13;12.93;;;;;;;;;;5112635;28;20042;-70
2024/01/17 01:44:49;;;;;;;26.40;12.85;;;;;;;;;;5111751;28;20054;-70
2024/01/17 01:47:53;;;;;;;24.08;12.80;;;;;;;;;;5100280;28;20552;-70
2024/01/17 01:50:57;;;;;;;27.48;13.18;;;;;;;;;;5112868;28;20054;-70
2024/01/17 01:54:03;;;;;;;25.92;13.02;;;13.00;99.90;;;;;;5112289;28;20062;-70
2024/01/17 01:57:08;;;;;;;23.92;11.57;;;13.70;99.90;;;;;;5112652;28;20395;-70
2024/01/17 02:00:13;;;;;;;26.33;11.23;;;;;;;;;;5112427;28;20046;-69
2024/01/17 02:03:18;;;;;;;25.75;11.73;;;;;;;;;;5112482;28;20050;-70
2024/01/17 02:06:24;;;;;;;24.02;8.23;;;13.90;99.90;;;;;;5112129;28;20043;-69
2024/01/17 02:09:30;;;;;;;17.15;7.18;;;;;;;;;;5112093;28;20043;-69
2024/01/17 02:12:34;;;;;;;14.27;5.50;;;;;;;;;;5112358;28;20043;-69
2024/01/17 02:15:38;;;;;;;13.27;5.47;;;;;;;;;;5112118;28;20047;-69
2024/01/17 02:18:43;;;;;;;18.13;3.83;;;14.00;99.90;;;;;;5111059;28;20584;-69
2024/01/17 02:21:47;;;;;;;12.82;3.25;;;;;;;;;;5112260;28;20070;-70
2024/01/17 02:24:52;;;;;;;21.88;8.05;;;;;;;;;;5111887;28;20475;-69
2024/01/17 02:27:56;;;;;;;22.77;7.53;;;;;;;;;;5112139;28;20411;-69
2024/01/17 02:31:00;;;;;;;20.13;7.63;;;;;;;;;;5112003;28;20032;-69
2024/01/17 02:34:04;;;;;;;21.02;7.70;;;;;;;;;;5111918;28;20036;-69
2024/01/17 02:37:12;;;;;;;19.27;7.80;;;15.50;99.90;;;;;;5112064;28;20066;-69
2024/01/17 02:40:16;;;;;;;19.17;7.20;;;;;;;;;;5111753;28;20043;-69
2024/01/17 02:43:20;;;;;;;15.38;7.85;;;;;;;;;;5111667;28;20054;-69
2024/01/17 02:46:27;;;;;;;16.23;7.78;;;16.70;99.90;;;;;;5111555;28;20050;-69
2024/01/17 02:49:32;;;;;;;18.10;7.28;;;;;;;;;;5111483;28;20038;-69
2024/01/17 02:52:36;;;;;;;19.23;7.97;;;;;;;;;;5111765;28;20039;-69
2024/01/17 02:55:40;;;;;;;15.32;6.30;;;;;;;;;;5111384;28;20043;-69
2024/01/17 02:58:44;;;;;;;13.45;3.97;;;;;;;;;;5110631;28;20039;-69
2024/01/17 03:01:50;;;;;;;10.50;2.78;;;;;;;;;;5111722;28;20044;-69
2024/01/17 03:04:55;;;;;;;15.98;2.42;;;;;;;;;;5111599;28;20510;-70
2024/01/17 03:07:59;;;;;;;16.55;2.30;;;;;;;;;;5111454;28;20391;-69
2024/01/17 03:11:03;;;;;;;11.43;3.05;;;;;;;;;;5111572;28;20498;-70
2024/01/17 03:14:08;;;;;;;17.80;2.45;;;;;;;;;;5110556;28;20047;-70
2024/01/17 03:17:12;;;;;;;11.50;2.00;;;;;;;;;;5111430;28;20047;-70
2024/01/17 03:20:17;;;;;;;11.63;2.60;;;;;;;;;;5114988;28;20060;-68
2024/01/17 03:23:21;;;;;;;15.77;1.92;;;;;;;;;;5114791;28;20035;-69
2024/01/17 03:26:25;;;;;;;15.75;2.20;;;;;;;;;;5115700;28;20034;-69
2024/01/17 03:29:30;;;;;;;13.52;2.08;;;;;;;;;;5114443;28;20042;-69
2024/01/17 03:32:34;;;;;;;9.32;1.88;;;;;;;;;;5115464;28;20039;-69
2024/01/17 03:35:38;;;;;;;5.47;1.75;;;;;;;;;;5115289;28;20043;-69
2024/01/17 03:38:42;;;;;;;7.03;1.13;;;;;;;;;;5114700;28;20036;-69
2024/01/17 03:41:46;;;;;;;8.57;2.03;;;;;;;;;;5115269;28;20040;-69
2024/01/17 03:44:51;;;;;;;9.05;3.03;;;;;;;;;;5115306;28;20043;-69
2024/01/17 03:47:55;;;;;;;21.70;5.00;;;;;;;;;;5114122;28;20028;-69
2024/01/17 03:50:59;;;;;;;18.85;5.60;;;;;;;;;;5115197;28;20048;-69
2024/01/17 03:54:03;;;;;;;16.00;4.78;;;;;;;;;;5102496;28;20035;-69
2024/01/17 03:57:11;;;;;;;19.27;4.65;;;;;;;;;;5115062;28;20047;-70
2024/01/17 04:00:15;;;;;;;19.52;5.30;;;;;;;;;;5114642;28;20375;-70
2024/01/17 04:03:20;;;;;;;11.57;3.80;;;;;;;;;;5114516;28;20035;-70
2024/01/17 04:06:25;;;;;;;12.57;3.72;;;;;;;;;;5114937;28;20039;-69
2024/01/17 04:09:29;;;;;;;14.48;4.10;;;;;;;;;;5114719;28;20047;-70
2024/01/17 04:12:33;;;;;;;10.32;3.15;;;;;;;;;;5114833;28;20031;-69
2024/01/17 04:15:38;;;;;;;7.82;3.35;;;;;;;;;;5114515;28;20391;-70
2024/01/17 04:18:42;;;;;;;18.30;4.68;;;;;;;;;;5114213;28;20048;-69
2024/01/17 04:21:47;;;;;;;14.82;3.35;;;;;;;;;;5114383;28;20044;-69
2024/01/17 04:24:51;;;;;;;13.18;3.65;;;;;;;;;;5114454;28;20046;-69
2024/01/17 04:27:55;;;;;;;7.38;2.90;;;;;;;;;;5114542;28;20035;-69
2024/01/17 04:30:59;;;;;;;8.05;3.15;;;;;;;;;;5114127;28;20039;-70
2024/01/17 04:34:04;;;;;;;11.93;2.70;;;;;;;;;;5114226;28;20039;-69
2024/01/17 04:37:09;;;;;;;7.95;3.05;;;;;;;;;;5114259;28;20059;-69
2024/01/17 04:40:13;;;;;;;8.90;2.80;;;;;;;;;;5113848;28;20036;-69
2024/01/17 04:43:17;;;;;;;9.05;2.55;;;;;;;;;;5112904;28;20129;-69
2024/01/17 04:46:22;;;;;;;10.98;2.97;;;;;;;;;;5114053;28;20027;-69
2024/01/17 04:49:27;;;;;;;10.68;2.92;;;;;;;;;;5113288;28;20040;-70
2024/01/17 04:52:31;;;;;;;15.63;3.33;;;;;;;;;;5113177;28;20536;-69
2024/01/17 04:55:39;;;;;;;8.85;2.75;;;;;;;;;;5113689;28;20046;-70
2024/01/17 04:58:43;;;;;;;13.55;2.97;;;;;;;;;;5113651;28;20032;-69
2024/01/17 05:01:48;;;;;;;13.93;2.97;;;;;;;;;;5113841;28;20052;-70
2024/01/17 05:04:52;;;;;;;9.73;3.17;;;;;;;;;;5112805;28;20141;-69
2024/01/17 05:07:56;;;;;;;9.02;3.00;;;;;;;;;;5113464;28;20039;-69
2024/01/17 05:11:01;;;;;;;15.48;3.28;;;;;;;;;;5112330;28;20031;-69
2024/01/17 05:14:05;;;;;;;15.32;2.95;;;;;;;;;;5113299;28;20043;-69
2024/01/17 05:17:10;;;;;;;18.13;3.00;;;;;;;;;;5113123;28;20056;-69
2024/01/17 05:20:16;;;;;;;22.50;3.10;;;;;;;;;;5112306;28;20036;-70
2024/01/17 05:23:21;;;;;;;19.60;4.28;;;;;;;;;;5113979;28;20526;-70
2024/01/17 05:26:26;;;;;;;18.73;2.92;;;;;;;;;;5113396;28;20028;-70
2024/01/17 05:29:32;;;;;;;25.50;3.65;;;;;;;;;;5113049;28;20035;-70
2024/01/17 05:32:38;;;;;;;23.45;5.38;;;;;;;;;;5113201;28;20046;-70
2024/01/17 05:35:42;;;;;;;18.95;3.33;;;;;;;;;;5113038;28;20364;-70
2024/01/17 05:38:47;;;;;;;19.85;3.85;;;;;;;;;;5112768;28;20128;-69
2024/01/17 05:41:52;;;;;;;33.45;5.70;;;;;;;;;;5111483;28;20039;-72
2024/01/17 05:44:56;;;;;;;15.57;3.63;;;;;;;;;;5112959;28;20036;-70
2024/01/17 05:48:01;;;;;;;23.33;3.53;;;;;;;;;;5112659;28;20066;-70
2024/01/17 05:51:06;;;;;;;27.05;3.78;;;;;;;;;;5112095;28;20042;-70
2024/01/17 05:54:10;;;;;;;25.42;4.53;;;;;;;;;;5112683;28;20522;-70
2024/01/17 05:57:14;;;;;;;25.02;3.03;;;;;;;;;;5112801;28;20055;-69
2024/01/17 06:00:19;;;;;;;25.48;4.68;;;;;;;;;;5112457;28;20035;-68
2024/01/17 06:03:23;;;;;;;21.08;4.15;;;;;;;;;;5112400;28;20039;-67
2024/01/17 06:06:28;;;;;;;23.48;4.13;;;;;;;;;;5112357;28;20043;-67
2024/01/17 06:09:32;;;;;;;19.98;4.35;;;;;;;;;;5111223;28;20040;-68
2024/01/17 06:12:36;;;;;;;20.95;3.78;;;;;;;;;;5112088;28;20040;-68
2024/01/17 06:15:41;;;;;;;18.63;3.67;;;;;;;;;;5111952;28;20402;-67
2024/01/17 06:18:45;;;;;;;20.55;4.18;;;;;;;;;;5111912;28;20039;-67
2024/01/17 06:21:49;;;;;;;26.90;4.60;;;;;;;;;;5112092;28;20402;-67
2024/01/17 06:24:53;;;;;;;21.85;3.90;;;;;;;;;;5111894;28;20050;-66
2024/01/17 06:27:58;;;;;;;23.52;4.28;;;;;;;;;;5111869;28;20035;-67
2024/01/17 06:31:04;;;;;;;18.98;4.35;;;15.50;99.90;;;;;;5111477;28;20039;-67
2024/01/17 06:34:08;;;;;;;24.42;4.03;;;;;;;;;;5111702;28;20470;-67
2024/01/17 06:37:12;;;;;;;23.35;4.45;;;;;;;;;;5111392;28;20138;-68
2024/01/17 06:40:17;;;;;;;16.65;3.03;;;;;;;;;;5111547;28;20035;-67
2024/01/17 06:43:21;;;;;;;27.27;5.25;;;;;;;;;;5111547;28;20036;-68
2024/01/17 06:46:25;;;;;;;18.60;3.92;;;;;;;;;;5111686;28;20028;-67
2024/01/17 06:49:29;;;;;;;12.57;3.50;;;;;;;;;;5111656;28;20035;-67
2024/01/17 06:52:34;;;;;;;24.38;4.88;;;;;;;;;;5110911;28;20032;-67
2024/01/17 06:55:39;;;;;;;27.63;5.07;;;;;;;;;;5111230;28;20038;-68
2024/01/17 06:58:43;;;;;;;25.10;5.32;;;;;;;;;;5111479;28;20040;-68
2024/01/17 07:01:47;;;;;;;36.20;6.82;;;;;;;;;;5111271;28;20393;-67
2024/01/17 07:04:51;;;;;;;27.65;5.10;;;;;;;;;;5110235;28;20035;-68
2024/01/17 07:07:56;;;;;;;28.92;4.40;;;;;;;;;;5111374;28;20054;-68
2024/01/17 07:11:00;;;;;;;34.25;4.47;;;;;;;;;;5110962;28;20040;-68
2024/01/17 07:14:04;;;;;;;24.20;3.75;;;;;;;;;;5111107;28;20041;-68
2024/01/17 07:17:08;;;;;;;22.00;5.40;;;;;;;;;;5111235;28;20039;-68
2024/01/17 07:20:13;;;;;;;25.77;6.00;;;;;;;;;;5110821;28;20036;-67
2024/01/17 07:23:17;;;;;;;12.35;4.22;;;;;;;;;;5110887;28;20036;-68
2024/01/17 07:26:21;;;;;;;15.85;3.75;;;;;;;;;;5111271;28;20505;-67
2024/01/17 07:29:26;;;;;;;15.90;3.25;;;;;;;;;;5110823;28;20242;-68
2024/01/17 07:32:30;;;;;;;25.15;4.03;;;;;;;;;;5110826;28;20036;-68
2024/01/17 07:35:34;;;;;;;16.92;3.90;;;;;;;;;;5110950;28;20051;-67
2024/01/17 07:38:38;;;;;;;21.52;5.15;;;;;;;;;;5111034;28;20066;-67
2024/01/17 07:41:43;;;;;;;18.77;5.20;;;;;;;;;;5110806;28;20046;-68
2024/01/17 07:44:47;;;;;;;22.90;5.18;;;;;;;;;;5110120;28;20039;-66
2024/01/17 07:47:51;;;;;;;28.17;5.63;;;;;;;;;;5110724;28;20039;-67
2024/01/17 07:50:56;;;;;;;30.48;7.10;;;;;;;;;;5110533;28;20040;-68
2024/01/17 07:54:00;;;;;;;23.65;6.65;;;;;;;;;;5110693;28;20039;-67
2024/01/17 07:57:04;;;;;;;16.25;5.75;;;;;;;;;;5110773;28;20407;-68
2024/01/17 08:00:09;;;;;;;19.00;5.18;;;;;;;;;;5111214;28;20036;-68
2024/01/17 08:03:16;;;;;;;17.85;5.47;;;;;;;;;;5111106;28;20039;-67
2024/01/17 08:06:20;;;;;;;23.00;8.70;;;;;;;;;;5114158;28;20513;-67
2024/01/17 08:09:27;;;;;;;23.17;8.13;;;;;;;;;;5114416;28;20341;-67
2024/01/17 08:12:32;;;;;;;19.10;6.55;;;;;;;;;;5114300;28;20040;-68
2024/01/17 08:15:36;;;;;;;17.98;5.70;;;;;;;;;;5114071;28;20047;-68
2024/01/17 08:18:40;;;;;;;17.70;4.15;;;;;;;;;;5114261;28;20041;-67
2024/01/17 08:21:45;;;;;;;8.60;2.17;;;;;;;;;;5114388;28;20040;-67
2024/01/17 08:24:49;;;;;;;14.25;2.97;;;;;;;;;;5114266;28;20036;-67
2024/01/17 08:27:54;;;;;;;26.05;9.13;;;;;;;;;;5113994;28;20032;-67
2024/01/17 08:30:59;;;;;;;28.05;6.97;;;;;;;;;;5113878;28;20042;-67
2024/01/17 08:34:03;;;;;;;24.77;6.20;;;15.70;99.90;;;;;;5113690;28;20036;-67
2024/01/17 08:37:08;;;;;;;17.45;5.47;;;;;;;;;;5113649;28;20058;-67
2024/01/17 08:40:12;;;;;;;19.52;6.47;;;;;;;;;;5113003;28;20039;-67
2024/01/17 08:43:16;;;;;;;9.60;3.80;;;;;;;;;;5113792;28;20390;-67
2024/01/17 08:46:21;;;;;;;17.50;5.10;;;;;;;;;;5113809;28;20048;-67
2024/01/17 08:49:25;;;;;;;17.48;3.85;;;;;;;;;;5113827;28;20049;-68
2024/01/17 08:52:30;;;;;;;17.70;4.35;;;;;;;;;;5113781;28;20035;-68
2024/01/17 08:55:34;;;;;;;21.42;4.13;;;;;;;;;;5113654;28;20047;-68
2024/01/17 08:58:38;;;;;;;19.27;4.07;;;;;;;;;;5113710;28;20035;-68
2024/01/17 09:01:43;;;;;;;20.38;5.75;;;;;;;;;;5113777;28;20395;-67
2024/01/17 09:04:47;;;;;;;19.83;5.47;;;;;;;;;;5112827;28;20050;-67
2024/01/17 09:07:52;;;;;;;14.45;5.40;;;;;;;;;;5113217;28;20035;-68
2024/01/17 09:10:57;;;;;;;10.63;3.70;;;;;;;;;;5113453;28;20047;-67
2024/01/17 09:14:02;;;;;;;12.07;3.75;;;;;;;;;;5113325;28;20387;-67
2024/01/17 09:17:06;;;;;;;10.80;3.33;;;;;;;;;;5111918;28;20043;-67
2024/01/17 09:20:11;;;;;;;11.20;3.88;;;;;;;;;;5112749;28;20048;-68
2024/01/17 09:23:15;;;;;;;10.88;3.58;;;;;;;;;;5112864;28;20044;-68
2024/01/17 09:26:19;;;;;;;15.98;3.83;;;;;;;;;;5112782;28;20035;-68
2024/01/17 09:29:23;;;;;;;14.30;4.88;;;;;;;;;;5113107;28;20379;-67
2024/01/17 09:32:28;;;;;;;12.20;3.95;;;;;;;;;;5112879;28;20039;-67
2024/01/17 09:35:35;;;;;;;20.67;5.00;;;;;;;;;;5112753;28;20050;-67
2024/01/17 09:38:39;;;;;;;21.65;5.50;;;;;;;;;;5112978;28;20054;-68
2024/01/17 09:41:43;;;;;;;33.58;6.78;;;;;;;;;;5112548;28;20031;-68
2024/01/17 09:44:48;;;;;;;34.20;6.70;;;;;;;;;;5112645;28;20036;-67
2024/01/17 09:47:56;;;;;;;30.60;6.28;;;15.30;99.90;;;;;;5112541;28;20032;-68
2024/01/17 09:51:00;;;;;;;29.92;6.75;;;;;;;;;;5112497;28;20058;-68
2024/01/17 09:54:05;;;;;;;25.70;6.63;;;;;;;;;;5112939;28;20379;-68
2024/01/17 09:57:23;;;;;;;28.52;8.15;;;13.40;99.90;;;;;;5112282;28;20055;-68
2024/01/17 10:00:28;;;;;;;40.83;6.88;;;14.60;99.90;;;;;;5112302;28;20042;-67
2024/01/17 10:03:36;;;;;;;40.78;7.75;;;15.50;99.90;;;;;;5112596;28;20058;-67
2024/01/17 10:06:44;;;;;;;43.50;7.05;;;14.20;99.90;;;;;;5112324;28;20031;-67
2024/01/17 10:09:49;;;;;;;43.83;7.00;;;;;;;;;;5112184;28;20050;-68
2024/01/17 10:12:54;;;;;;;40.95;7.78;;;;;;;;;;5112088;28;20027;-68
2024/01/17 10:16:03;;;;;;;37.63;6.28;;;15.60;99.90;;;;;;5112070;28;20051;-68
2024/01/17 10:19:07;;;;;;;41.13;7.22;;;;;;;;;;5112070;28;20515;-68
2024/01/17 10:22:12;;;;;;;45.15;7.65;;;;;;;;;;5111970;28;20043;-68
2024/01/17 10:25:17;;;;;;;39.30;6.45;;;;;;;;;;5111883;28;20043;-68
2024/01/17 10:28:21;;;;;;;45.42;7.72;;;;;;;;;;5111793;28;20463;-68
2024/01/17 10:31:25;;;;;;;38.47;6.72;;;;;;;;;;5112004;28;20032;-68
2024/01/17 10:34:30;;;;;;;39.88;6.40;;;;;;;;;;5111827;28;20036;-69
2024/01/17 10:37:35;;;;;;;48.78;7.53;;;;;;;;;;5111814;28;20054;-70
2024/01/17 10:40:42;;;;;;;38.05;5.50;;;;;;;;;;5112070;28;20036;-69
2024/01/17 10:43:55;;;;;;;34.60;5.75;;;15.50;99.90;;;;;;5111773;28;20039;-71
2024/01/17 10:47:00;;;;;;;32.25;4.45;;;;;;;;;;5111346;28;20105;-69
2024/01/17 10:50:05;;;;;;;28.60;5.18;;;;;;;;;;5111194;28;20063;-70
2024/01/17 10:53:09;;;;;;;36.60;5.05;;;16.20;99.90;;;;;;5111332;28;20109;-68
2024/01/17 10:56:18;;;;;;;23.30;4.43;;;;;;;;;;5111545;28;20055;-70
2024/01/17 10:59:22;;;;;;;34.08;5.35;;;;;;;;;;5111209;28;20035;-69
2024/01/17 11:02:26;;;;;;;29.10;4.95;;;;;;;;;;5111618;28;20447;-68
2024/01/17 11:05:34;;;;;;;31.92;5.45;;;;;;;;;;5111211;28;20039;-71
2024/01/17 11:08:39;;;;;;;28.55;5.97;;;;;;;;;;5111478;28;20047;-70
2024/01/17 11:11:45;;;;;;;27.13;5.45;;;;;;;;;;5111285;28;20032;-69
2024/01/17 11:14:51;;;;;;;30.17;5.07;;;;;;;;;;5111548;28;20036;-71
2024/01/17 11:17:57;;;;;;;34.35;5.13;;;;;;;;;;5110371;28;20044;-70
2024/01/17 11:21:03;;;;;;;22.02;3.95;;;;;;;;;;5111324;28;20032;-69
2024/01/17 11:24:31;;;;;;;26.85;4.38;;;;;;;;;;5111045;28;20040;-69
2024/01/17 11:27:58;;;;;;;18.55;4.68;;;;;;;;;;5102225;28;20051;-68
2024/01/17 11:31:28;;;;;;;24.85;4.47;;;;;;;;;;5102769;28;20040;-69
2024/01/17 11:34:32;;;;;;;29.15;4.65;;;;;;;;;;5111132;28;20040;-68
2024/01/17 11:37:39;;;;;;;21.55;3.92;;;;;;;;;;5110752;28;20059;-68
2024/01/17 11:40:43;;;;;;;29.50;4.40;;;;;;;;;;5113741;28;20044;-68
2024/01/17 11:43:47;;;;;;;23.77;3.72;;;;;;;;;;5114936;28;20507;-68
2024/01/17 11:46:53;;;;;;;21.00;4.03;;;;;;;;;;5102543;28;20036;-68
2024/01/17 11:49:58;;;;;;;32.38;4.22;;;;;;;;;;5114796;28;20036;-68
2024/01/17 11:53:02;;;;;;;25.70;4.75;;;;;;;;;;5115043;28;20448;-69
2024/01/17 11:56:08;;;;;;;32.60;6.50;;;;;;;;;;5114691;28;20052;-68
2024/01/17 11:59:13;;;;;;;32.50;4.82;;;;;;;;;;5114870;28;20034;-68
2024/01/17 12:02:37;;;;;;;24.88;5.70;;;18.10;99.90;;;;;;5114580;28;20039;-68
2024/01/17 12:05:45;;;;;;;21.88;3.65;;;;;;;;;;5114461;28;20395;-68
2024/01/17 12:08:49;;;;;;;20.85;5.07;;;;;;;;;;5114670;28;20518;-67
2024/01/17 12:11:53;;;;;;;28.27;5.43;;;;;;;;;;5114355;28;20040;-68
2024/01/17 12:14:58;;;;;;;17.95;4.05;;;;;;;;;;5114660;28;20455;-67
2024/01/17 12:18:05;;;;;;;20.63;5.70;;;;;;;;;;5114562;28;20055;-68
2024/01/17 12:21:09;;;;;;;24.73;4.22;;;;;;;;;;5114514;28;20044;-68
2024/01/17 12:24:14;;;;;;;29.67;5.65;;;;;;;;;;5114447;28;20043;-67
2024/01/17 12:27:18;;;;;;;20.75;5.90;;;;;;;;;;5113997;28;20492;-69
2024/01/17 12:30:23;;;;;;;27.13;6.38;;;;;;;;;;5114174;28;20035;-68
2024/01/17 12:33:27;;;;;;;28.80;5.95;;;;;;;;;;5113929;28;20039;-68
2024/01/17 12:36:34;;;;;;;18.58;4.43;;;;;;;;;;5114008;28;20048;-68
2024/01/17 12:39:38;;;;;;;25.33;4.65;;;;;;;;;;5114135;28;20501;-69
2024/01/17 12:42:47;;;;;;;27.63;5.40;;;;;;;;;;5113845;28;20046;-68
2024/01/17 12:45:52;;;;;;;29.27;6.25;;;;;;;;;;5113902;28;20047;-68
2024/01/17 12:48:58;;;;;;;18.23;4.35;;;;;;;;;;5113811;28;20052;-68
2024/01/17 12:52:03;;;;;;;27.38;4.00;;;;;;;;;;5113513;28;20035;-69
2024/01/17 12:55:08;;;;;;;22.58;4.60;;;;;;;;;;5114041;28;20048;-68
2024/01/17 12:58:13;;;;;;;35.83;4.93;;;;;;;;;;5113490;28;20044;-66
2024/01/17 13:01:17;;;;;;;20.95;4.43;;;;;;;;;;5113520;28;20403;-67
2024/01/17 13:04:22;;;;;;;31.67;5.20;;;;;;;;;;5113396;28;20047;-67
2024/01/17 13:07:26;;;;;;;25.45;4.97;;;;;;;;;;5113710;28;20050;-67
2024/01/17 13:10:33;;;;;;;26.75;4.53;;;18.30;99.90;;;;;;5113192;28;20036;-67
2024/01/17 13:13:38;;;;;;;28.92;4.80;;;;;;;;;;5112750;28;20043;-69
2024/01/17 13:16:42;;;;;;;26.40;4.65;;;;;;;;;;5113042;28;20044;-68
2024/01/17 13:19:47;;;;;;;23.08;4.35;;;;;;;;;;5112744;28;20055;-70
2024/01/17 13:22:53;;;;;;;24.80;4.18;;;;;;;;;;5112360;28;20047;-68
2024/01/17 13:25:57;;;;;;;21.40;5.28;;;;;;;;;;5112950;28;20032;-68
2024/01/17 13:29:06;;;;;;;22.75;7.25;;;16.80;99.90;;;;;;5113122;28;20439;-67
2024/01/17 13:32:11;;;;;;;22.70;6.22;;;;;;;;;;5112976;28;20051;-67
2024/01/17 13:35:16;;;;;;;26.83;7.85;;;;;;;;;;5113027;28;20039;-67
2024/01/17 13:38:25;;;;;;;23.75;6.22;;;;;;;;;;5112752;28;20040;-69
2024/01/17 13:41:31;;;;;;;22.77;6.50;;;;;;;;;;5113025;28;20130;-68
2024/01/17 13:44:35;;;;;;;26.40;5.95;;;;;;;;;;5112499;28;20032;-68
2024/01/17 13:47:40;;;;;;;24.17;5.88;;;;;;;;;;5112335;28;20040;-68
2024/01/17 13:50:46;;;;;;;24.38;5.75;;;;;;;;;;5112666;28;20062;-68
2024/01/17 13:53:53;;;;;;;20.50;6.85;;;;;;;;;;5112640;28;20038;-68
2024/01/17 13:56:57;;;;;;;18.15;5.85;;;;;;;;;;5112453;28;20062;-70
2024/01/17 14:00:01;;;;;;;26.13;4.78;;;;;;;;;;5112463;28;20048;-67
2024/01/17 14:03:11;;;;;;;20.05;4.45;;;;;;;;;;5111619;28;20044;-66
2024/01/17 14:06:16;;;;;;;22.27;4.30;;;;;;;;;;5112096;28;20031;-68
2024/01/17 14:09:23;;;;;;;23.42;4.75;;;;;;;;;;5112201;28;20036;-68
2024/01/17 14:12:28;;;;;;;17.83;4.00;;;;;;;;;;5111938;28;20044;-67
2024/01/17 14:15:32;;;;;;;18.17;6.18;;;;;;;;;;5112241;28;20345;-67
2024/01/17 14:18:37;;;;;;;26.02;4.80;;;;;;;;;;5111936;28;20059;-66
2024/01/17 14:21:42;;;;;;;25.88;5.10;;;;;;;;;;5112020;28;20448;-67
2024/01/17 14:24:46;;;;;;;24.73;4.32;;;;;;;;;;5112137;28;20047;-68
2024/01/17 14:27:50;;;;;;;30.02;4.20;;;;;;;;;;5111873;28;20387;-66
2024/01/17 14:30:55;;;;;;;23.95;5.25;;;;;;;;;;5111876;28;20044;-66
2024/01/17 14:33:59;;;;;;;26.75;4.40;;;;;;;;;;5111811;28;20043;-67
2024/01/17 14:37:03;;;;;;;20.15;4.65;;;;;;;;;;5111906;28;20519;-66
2024/01/17 14:40:08;;;;;;;23.80;4.28;;;;;;;;;;5111560;28;20041;-67
2024/01/17 14:43:12;;;;;;;17.35;3.92;;;;;;;;;;5111431;28;20036;-67
2024/01/17 14:46:17;;;;;;;14.88;3.90;;;;;;;;;;5111426;28;20035;-67
2024/01/17 14:49:21;;;;;;;26.05;5.05;;;;;;;;;;5111608;28;20035;-67
2024/01/17 14:52:25;;;;;;;21.35;3.80;;;;;;;;;;5111442;28;20386;-66
2024/01/17 14:55:32;;;;;;;24.30;3.92;;;;;;;;;;5111402;28;20055;-67
2024/01/17 14:58:36;;;;;;;18.88;5.03;;;;;;;;;;5111599;28;20048;-67
2024/01/17 15:01:45;;;;;;;13.75;3.90;;;;;;;;;;5111470;28;20166;-67
2024/01/17 15:04:49;;;;;;;28.25;5.97;;;;;;;;;;5112099;28;20035;-67
2024/01/17 15:07:54;;;;;;;28.40;5.40;;;;;;;;;;5111180;28;20392;-68
2024/01/17 15:10:58;;;;;;;23.27;5.10;;;;;;;;;;5111446;28;20085;-68
2024/01/17 15:14:03;;;;;;;15.32;3.75;;;;;;;;;;5111737;28;20039;-67
2024/01/17 15:17:07;;;;;;;18.42;3.47;;;;;;;;;;5115605;28;20052;-68
2024/01/17 15:20:12;;;;;;;24.05;4.18;;;;;;;;;;5115398;28;20052;-67
2024/01/17 15:23:16;;;;;;;16.05;3.13;;;;;;;;;;5115374;28;20036;-67
2024/01/17 15:26:20;;;;;;;23.83;3.67;;;;;;;;;;5115430;28;20039;-67
2024/01/17 15:29:26;;;;;;;19.30;4.18;;;;;;;;;;5114911;28;20034;-67
2024/01/17 15:32:30;;;;;;;11.25;2.97;;;;;;;;;;5115252;28;20044;-66
2024/01/17 15:35:34;;;;;;;20.42;3.42;;;;;;;;;;5115126;28;20151;-67
2024/01/17 15:38:43;;;;;;;21.08;3.70;;;;;;;;;;5115095;28;20502;-67
2024/01/17 15:41:47;;;;;;;25.25;3.65;;;;;;;;;;5114967;28;20040;-68
2024/01/17 15:44:52;;;;;;;24.48;4.78;;;;;;;;;;5114841;28;20043;-68
2024/01/17 15:47:56;;;;;;;24.55;4.47;;;;;;;;;;5114053;28;20042;-68
2024/01/17 15:51:02;;;;;;;26.70;4.43;;;16.80;99.90;;;;;;5115181;28;20513;-67
2024/01/17 15:54:06;;;;;;;28.20;4.95;;;;;;;;;;5114972;28;20047;-67
2024/01/17 15:57:10;;;;;;;19.15;4.35;;;;;;;;;;5114616;28;20511;-67
2024/01/17 16:00:15;;;;;;;35.28;5.88;;;;;;;;;;5113967;28;20035;-67
2024/01/17 16:03:20;;;;;;;21.55;5.43;;;;;;;;;;5114865;28;20035;-67
2024/01/17 16:06:24;;;;;;;23.98;4.65;;;;;;;;;;5114550;28;20036;-67
2024/01/17 16:09:28;;;;;;;33.65;4.43;;;;;;;;;;5114517;28;20510;-69
2024/01/17 16:12:32;;;;;;;18.40;4.45;;;;;;;;;;5114432;28;20043;-68
2024/01/17 16:15:37;;;;;;;28.05;4.93;;;;;;;;;;5114222;28;20036;-68
2024/01/17 16:18:43;;;;;;;35.40;6.97;;;17.50;99.90;;;;;;5113162;28;20051;-69
2024/01/17 16:21:54;;;;;;;20.55;5.18;;;;;;;;;;5114414;28;20045;-70
2024/01/17 16:24:58;;;;;;;18.25;4.80;;;;;;;;;;5113756;28;20036;-67
2024/01/17 16:28:03;;;;;;;29.75;8.98;;;;;;;;;;5113940;28;20032;-73
2024/01/17 16:31:08;;;;;;;29.98;6.10;;;;;;;;;;5113963;28;20051;-68
2024/01/17 16:34:12;;;;;;;25.88;6.15;;;;;;;;;;5114374;28;20038;-67
2024/01/17 16:37:16;;;;;;;31.20;10.23;;;;;;;;;;5113931;28;20051;-68
2024/01/17 16:40:21;;;;;;;58.65;25.63;;;;;;;;;;5114093;28;20042;-69
2024/01/17 16:43:25;;;;;;;110.70;51.70;;;;;;;;;;5113882;28;20039;-68
2024/01/17 16:46:29;;;;;;;49.72;20.30;;;;;;;;;;5114181;28;20054;-68
2024/01/17 16:49:34;;;;;;;48.83;22.38;;;;;;;;;;5112972;28;20505;-68
2024/01/17 16:52:38;;;;;;;53.75;24.05;;;;;;;;;;5113410;28;20051;-67
2024/01/17 16:55:42;;;;;;;43.40;20.02;;;;;;;;;;5113668;28;20039;-69
2024/01/17 16:58:47;;;;;;;42.03;17.23;;;;;;;;;;5113566;28;20069;-67
2024/01/17 17:01:51;;;;;;;58.15;21.95;;;;;;;;;;5113392;28;20043;-70
2024/01/17 17:04:56;;;;;;;35.65;15.15;;;;;;;;;;5113409;28;20047;-67
2024/01/17 17:08:00;;;;;;;29.20;12.90;;;;;;;;;;5113352;28;20101;-67
2024/01/17 17:11:04;;;;;;;41.50;14.13;;;;;;;;;;5113121;28;20039;-66
2024/01/17 17:14:09;;;;;;;42.17;14.10;;;;;;;;;;5113541;28;20043;-68
2024/01/17 17:17:13;;;;;;;33.13;12.73;;;;;;;;;;5112234;28;20066;-69
2024/01/17 17:20:18;;;;;;;36.35;9.93;;;;;;;;;;5112971;28;20447;-68
2024/01/17 17:23:22;;;;;;;38.42;12.15;;;;;;;;;;5112900;28;20048;-68
2024/01/17 17:26:26;;;;;;;37.13;13.45;;;;;;;;;;5113033;28;20043;-69
2024/01/17 17:29:31;;;;;;;36.90;14.35;;;;;;;;;;5113057;28;20039;-71
2024/01/17 17:32:35;;;;;;;53.53;22.58;;;;;;;;;;5112827;28;20050;-69
2024/01/17 17:35:39;;;;;;;41.55;20.92;;;;;;;;;;5112786;28;20042;-70
2024/01/17 17:38:43;;;;;;;31.20;11.48;;;;;;;;;;5111986;28;20050;-69
2024/01/17 17:41:48;;;;;;;27.75;9.00;;;;;;;;;;5112521;28;20039;-68
2024/01/17 17:44:52;;;;;;;35.45;11.55;;;;;;;;;;5113007;28;20043;-67
2024/01/17 17:47:57;;;;;;;30.67;13.15;;;;;;;;;;5112449;28;20251;-67
2024/01/17 17:51:03;;;;;;;41.00;17.70;;;;;;;;;;5113727;28;20047;-69
2024/01/17 17:54:07;;;;;;;67.32;25.92;;;;;;;;;;5113049;28;20505;-67
2024/01/17 17:57:12;;;;;;;58.65;25.83;;;;;;;;;;5112706;28;20054;-69
2024/01/17 18:00:17;;;;;;;83.38;44.97;;;;;;;;;;5112790;28;20054;-69